Attleborough, United Kingdom
Current Conditions -  °F | °C
As of 11:50 AM on Tuesday 21 Oct 2014 (Local Time) from EGSH Reporting Station
Scattered Clouds Scattered Clouds  
Wind Chill: 54°   Ceiling: Unl
Heat Index: 54°   Visibility: 6mi
Dew Point: 45°   Wind: 29mph
Humidity: 72%   Direction: 260°W
Pressure: 29.5"   Gusts: 46mph
Location:  52.51°N, 1°E
Report Text: EGSH 211050Z 26025G40KT 230V320 9999 FEW012 SCT025 12/07 Q0999 NOSIG
Loading
Personal Weather Stations






























Interactive Weather Map New forecast layout! Learn more

10-Day Weather Forecast

Advertisements
Track Severe Weather on mobile